createdAt,value
2017-07-09T00:00:15.088Z,54.40
2017-07-09T00:02:41.255Z,54.10
2017-07-09T00:05:08.201Z,55.40
2017-07-09T00:07:35.135Z,54.60
2017-07-09T00:10:02.048Z,54.50
2017-07-09T00:12:28.315Z,54.10
2017-07-09T00:14:55.264Z,54.80
2017-07-09T00:17:22.195Z,54.90
2017-07-09T00:19:48.381Z,54.50
2017-07-09T00:22:14.575Z,54.90
2017-07-09T00:24:41.202Z,54.50
2017-07-09T00:27:08.175Z,54.60
2017-07-09T00:29:34.347Z,54.20
2017-07-09T00:32:00.589Z,54.80
2017-07-09T00:34:26.780Z,55.00
2017-07-09T00:36:52.954Z,55.20
2017-07-09T00:39:19.155Z,55.00
2017-07-09T00:41:45.355Z,54.90
2017-07-09T00:44:11.519Z,55.90
2017-07-09T00:46:37.732Z,55.50
2017-07-09T00:49:03.916Z,54.90
2017-07-09T00:51:30.835Z,55.70
2017-07-09T00:53:57.031Z,55.70
2017-07-09T00:56:23.268Z,55.90
2017-07-09T00:58:49.506Z,55.70
2017-07-09T01:01:15.688Z,56.10
2017-07-09T01:03:41.930Z,55.80
2017-07-09T01:06:08.105Z,56.50
2017-07-09T01:08:34.355Z,56.20
2017-07-09T01:11:01.291Z,56.30
2017-07-09T01:13:28.239Z,57.10
2017-07-09T01:15:55.175Z,56.50
2017-07-09T01:18:21.406Z,56.50
2017-07-09T01:20:47.578Z,56.80
2017-07-09T01:23:13.781Z,56.70
2017-07-09T01:25:40.735Z,56.80
2017-07-09T01:28:06.881Z,56.70
2017-07-09T01:30:33.053Z,57.40
2017-07-09T01:32:59.235Z,56.90
2017-07-09T01:35:25.405Z,56.50
2017-07-09T01:37:51.577Z,56.50
2017-07-09T01:40:17.779Z,57.20
2017-07-09T01:42:43.939Z,56.80
2017-07-09T01:45:10.155Z,57.20
2017-07-09T01:47:37.484Z,56.80
2017-07-09T01:50:03.666Z,57.30
2017-07-09T01:52:29.892Z,57.40
2017-07-09T01:54:56.083Z,57.50
2017-07-09T01:57:23.059Z,57.90
2017-07-09T01:59:49.251Z,57.80
2017-07-09T02:02:16.195Z,58.70
2017-07-09T02:04:42.394Z,57.60
2017-07-09T02:07:08.587Z,57.80
2017-07-09T02:09:34.746Z,58.40
2017-07-09T02:12:00.875Z,58.00
2017-07-09T02:14:27.064Z,58.80
2017-07-09T02:16:53.260Z,58.00
2017-07-09T02:19:19.464Z,58.60
2017-07-09T02:21:45.641Z,58.30
2017-07-09T02:24:11.809Z,58.80
2017-07-09T02:26:37.987Z,58.70
2017-07-09T02:29:04.911Z,59.00
2017-07-09T02:31:31.066Z,58.90
2017-07-09T02:33:57.987Z,59.50
2017-07-09T02:36:24.187Z,59.50
2017-07-09T02:38:50.363Z,59.70
2017-07-09T02:41:16.583Z,59.60
2017-07-09T02:43:43.527Z,59.80
2017-07-09T02:46:10.063Z,58.70
2017-07-09T02:48:36.997Z,60.30
2017-07-09T02:51:03.180Z,59.50
2017-07-09T02:53:29.329Z,59.60
2017-07-09T02:55:55.508Z,60.10
2017-07-09T02:58:21.678Z,60.10
2017-07-09T03:00:47.884Z,60.20
2017-07-09T03:03:14.071Z,59.40
2017-07-09T03:05:41.027Z,60.50
2017-07-09T03:08:07.594Z,59.30
2017-07-09T03:10:33.779Z,59.40
2017-07-09T03:13:00.691Z,59.60
2017-07-09T03:15:26.899Z,59.90
2017-07-09T03:17:53.087Z,59.50
2017-07-09T03:20:20.039Z,60.00
2017-07-09T03:22:46.937Z,60.30
2017-07-09T03:25:13.084Z,60.30
2017-07-09T03:27:39.291Z,60.00
2017-07-09T03:30:05.488Z,60.30
2017-07-09T03:32:31.636Z,59.90
2017-07-09T03:34:57.810Z,60.10
2017-07-09T03:37:23.970Z,60.20
2017-07-09T03:39:50.143Z,60.60
2017-07-09T03:42:17.062Z,59.80
2017-07-09T03:44:43.300Z,59.80
2017-07-09T03:47:09.516Z,60.30
2017-07-09T03:49:35.695Z,60.10
2017-07-09T03:52:01.891Z,60.60
2017-07-09T03:54:28.076Z,60.20
2017-07-09T03:56:55.015Z,61.10
2017-07-09T03:59:21.959Z,61.30
2017-07-09T04:01:48.865Z,61.00
2017-07-09T04:04:15.090Z,61.00
2017-07-09T04:06:41.297Z,61.50
2017-07-09T04:09:07.439Z,61.30
2017-07-09T04:11:33.643Z,61.80
2017-07-09T04:13:59.852Z,61.80
2017-07-09T04:16:26.778Z,62.80
2017-07-09T04:18:52.972Z,62.80
2017-07-09T04:21:19.135Z,63.40
2017-07-09T04:26:27.155Z,62.60
2017-07-09T04:28:53.343Z,63.00
2017-07-09T04:31:19.528Z,63.70
2017-07-09T04:33:45.704Z,62.40
2017-07-09T04:36:11.890Z,62.50
2017-07-09T04:38:38.811Z,62.70
2017-07-09T04:41:04.943Z,62.70
2017-07-09T04:43:31.900Z,63.40
2017-07-09T04:45:58.824Z,63.10
2017-07-09T04:48:24.957Z,62.30
2017-07-09T04:50:52.767Z,63.00
2017-07-09T04:53:19.062Z,62.20
2017-07-09T04:55:45.967Z,63.40
2017-07-09T04:58:12.177Z,63.00
2017-07-09T05:00:38.372Z,62.20
2017-07-09T05:03:05.280Z,61.80
2017-07-09T05:05:31.476Z,61.80
2017-07-09T05:07:57.678Z,61.30
2017-07-09T05:10:24.579Z,60.80
2017-07-09T05:12:50.778Z,59.60
2017-07-09T05:15:17.011Z,59.60
2017-07-09T05:17:43.603Z,59.80
2017-07-09T05:20:10.906Z,59.50
2017-07-09T05:22:37.085Z,59.80
2017-07-09T05:25:03.985Z,60.70
2017-07-09T05:27:30.158Z,61.50
2017-07-09T05:29:57.075Z,61.60
2017-07-09T05:32:23.311Z,61.50
2017-07-09T05:34:49.467Z,61.60
2017-07-09T05:37:16.391Z,62.00
2017-07-09T05:39:42.617Z,61.90
2017-07-09T05:42:08.808Z,61.60
2017-07-09T05:44:35.005Z,59.90
2017-07-09T05:47:02.485Z,59.80
2017-07-09T05:49:28.690Z,58.10
2017-07-09T05:51:55.593Z,58.60
2017-07-09T05:54:21.785Z,58.60
2017-07-09T05:56:47.988Z,58.70
2017-07-09T05:59:14.165Z,58.80
2017-07-09T06:01:40.359Z,56.10
2017-07-09T06:04:07.300Z,55.50
2017-07-09T06:06:33.453Z,55.10
2017-07-09T06:08:59.605Z,55.50
2017-07-09T06:11:25.907Z,55.00
2017-07-09T06:13:52.080Z,54.60
2017-07-09T06:16:18.263Z,55.00
2017-07-09T06:18:44.480Z,55.80
2017-07-09T06:21:10.674Z,53.80
2017-07-09T06:23:36.936Z,53.90
2017-07-09T06:26:03.144Z,54.40
2017-07-09T06:28:30.067Z,54.30
2017-07-09T06:30:56.291Z,52.60
2017-07-09T06:33:22.492Z,52.90
2017-07-09T06:35:48.679Z,52.70
2017-07-09T06:38:15.645Z,53.10
2017-07-09T06:40:41.800Z,53.10
2017-07-09T06:43:07.975Z,52.30
2017-07-09T06:45:34.880Z,52.40
2017-07-09T06:48:01.116Z,52.30
2017-07-09T06:50:27.289Z,51.90
2017-07-09T06:52:54.206Z,51.80
2017-07-09T06:55:20.411Z,50.70
2017-07-09T06:57:46.588Z,51.10
2017-07-09T07:00:12.755Z,50.00
2017-07-09T07:02:38.947Z,49.50
2017-07-09T07:05:05.107Z,49.00
2017-07-09T07:07:31.283Z,49.10
2017-07-09T07:09:57.862Z,49.50
2017-07-09T07:12:24.051Z,47.60
2017-07-09T07:14:50.979Z,48.40
2017-07-09T07:17:17.161Z,48.00
2017-07-09T07:19:43.363Z,47.10
2017-07-09T07:22:09.636Z,47.80
2017-07-09T07:24:35.863Z,46.60
2017-07-09T07:27:02.077Z,46.20
2017-07-09T07:29:28.247Z,45.40
2017-07-09T07:31:54.421Z,44.80
2017-07-09T07:34:20.593Z,46.10
2017-07-09T07:36:46.769Z,45.50
2017-07-09T07:39:12.972Z,45.40
2017-07-09T07:41:39.891Z,44.70
2017-07-09T07:44:06.085Z,44.80
2017-07-09T07:46:32.276Z,45.00
2017-07-09T07:48:59.239Z,43.70
2017-07-09T07:51:25.430Z,43.80
2017-07-09T07:53:51.644Z,43.00
2017-07-09T07:56:17.823Z,42.70
2017-07-09T07:58:44.020Z,42.90
2017-07-09T08:01:10.215Z,41.50
2017-07-09T08:03:36.435Z,42.50
2017-07-09T08:06:02.638Z,44.40
2017-07-09T08:08:28.897Z,46.50
2017-07-09T08:10:55.081Z,46.50
2017-07-09T08:13:21.995Z,48.70
2017-07-09T08:15:48.229Z,48.50
2017-07-09T08:18:14.448Z,47.50
2017-07-09T08:20:40.611Z,47.20
2017-07-09T08:23:07.527Z,44.80
2017-07-09T08:25:33.734Z,43.30
2017-07-09T08:27:59.949Z,44.60
2017-07-09T08:30:26.210Z,43.70
2017-07-09T08:32:52.427Z,45.20
2017-07-09T08:35:18.616Z,44.20
2017-07-09T08:37:44.820Z,45.30
2017-07-09T08:40:11.015Z,44.00
2017-07-09T08:42:37.188Z,45.60
2017-07-09T08:45:04.113Z,44.90
2017-07-09T08:47:30.376Z,44.70
2017-07-09T08:49:56.531Z,44.80
2017-07-09T08:52:22.686Z,46.50
2017-07-09T08:54:48.879Z,46.30
2017-07-09T08:57:15.056Z,44.10
2017-07-09T08:59:41.268Z,44.20
2017-07-09T09:02:08.222Z,43.50
2017-07-09T09:04:34.758Z,44.90
2017-07-09T09:07:00.967Z,43.20
2017-07-09T09:09:27.176Z,44.10
2017-07-09T09:11:53.394Z,43.10
2017-07-09T09:14:19.637Z,42.30
2017-07-09T09:16:45.853Z,42.30
2017-07-09T09:19:12.078Z,43.00
2017-07-09T09:21:38.263Z,43.00
2017-07-09T09:24:04.436Z,43.30
2017-07-09T09:26:30.643Z,42.10
2017-07-09T09:28:57.569Z,43.40
2017-07-09T09:31:23.796Z,42.20
2017-07-09T09:33:49.976Z,44.00
2017-07-09T09:36:16.990Z,42.10
2017-07-09T09:38:44.697Z,41.40
2017-07-09T09:41:10.937Z,41.50
2017-07-09T09:43:37.152Z,41.30
2017-07-09T09:46:03.760Z,40.40
2017-07-09T09:48:30.341Z,40.30
2017-07-09T09:50:56.528Z,41.10
2017-07-09T09:53:24.044Z,40.50
2017-07-09T09:55:51.021Z,40.40
2017-07-09T09:58:18.762Z,40.00
2017-07-09T10:00:45.126Z,38.40
2017-07-09T10:03:11.363Z,38.10
2017-07-09T10:05:37.531Z,38.40
2017-07-09T10:08:03.823Z,37.20
2017-07-09T10:10:31.156Z,37.50
2017-07-09T10:12:58.123Z,38.40
2017-07-09T10:15:24.348Z,36.70
2017-07-09T10:17:50.921Z,38.60
2017-07-09T10:20:17.680Z,38.00
2017-07-09T10:22:44.214Z,37.90
2017-07-09T10:25:11.589Z,36.70
2017-07-09T10:27:38.828Z,37.10
2017-07-09T10:30:06.066Z,35.40
2017-07-09T10:32:32.328Z,35.50
2017-07-09T10:34:59.111Z,34.40
2017-07-09T10:37:26.297Z,35.10
2017-07-09T10:39:54.342Z,35.50
2017-07-09T10:42:22.227Z,35.30
2017-07-09T10:44:48.420Z,35.20
2017-07-09T10:47:14.643Z,36.00
2017-07-09T10:49:40.832Z,36.10
2017-07-09T10:52:07.068Z,35.00
2017-07-09T10:54:33.269Z,35.80
2017-07-09T10:56:59.442Z,37.50
2017-07-09T10:59:26.441Z,37.00
2017-07-09T11:01:52.637Z,37.10
2017-07-09T11:04:18.839Z,36.30
2017-07-09T11:06:45.728Z,36.90
2017-07-09T11:09:11.944Z,36.40
2017-07-09T11:11:38.148Z,36.80
2017-07-09T11:14:05.059Z,39.30
2017-07-09T11:16:31.267Z,39.20
2017-07-09T11:18:57.487Z,39.60
2017-07-09T11:21:23.661Z,41.50
2017-07-09T11:23:49.862Z,38.20
2017-07-09T11:26:16.057Z,38.70
2017-07-09T11:28:42.283Z,37.60
2017-07-09T11:31:08.462Z,36.50
2017-07-09T11:33:34.661Z,37.20
2017-07-09T11:36:00.868Z,36.10
2017-07-09T11:38:27.047Z,38.00
2017-07-09T11:40:53.284Z,36.00
2017-07-09T11:43:19.495Z,35.30
2017-07-09T11:45:45.680Z,38.00
2017-07-09T11:48:11.857Z,38.10
2017-07-09T11:50:38.044Z,37.90
2017-07-09T11:53:04.235Z,38.60
2017-07-09T11:55:30.506Z,37.90
2017-07-09T11:57:56.691Z,37.40
2017-07-09T12:00:22.860Z,38.30
2017-07-09T12:02:49.048Z,38.70
2017-07-09T12:05:15.243Z,38.00
2017-07-09T12:07:41.497Z,39.00
2017-07-09T12:10:07.732Z,36.40
2017-07-09T12:12:33.889Z,37.60
2017-07-09T12:15:00.103Z,37.70
2017-07-09T12:17:27.046Z,37.10
2017-07-09T12:19:53.959Z,37.80
2017-07-09T12:22:20.176Z,37.80
2017-07-09T12:24:46.351Z,38.70
2017-07-09T12:27:13.299Z,37.30
2017-07-09T12:29:40.242Z,36.10
2017-07-09T12:32:07.364Z,38.10
2017-07-09T12:34:33.647Z,36.70
2017-07-09T12:36:59.847Z,37.50
2017-07-09T12:39:26.816Z,37.40
2017-07-09T12:41:52.979Z,36.60
2017-07-09T12:44:19.537Z,36.90
2017-07-09T12:46:45.783Z,37.40
2017-07-09T12:49:12.692Z,37.10
2017-07-09T12:51:39.614Z,38.10
2017-07-09T12:54:20.729Z,37.10
2017-07-09T12:56:46.905Z,37.40
2017-07-09T12:59:13.076Z,39.10
2017-07-09T13:01:39.230Z,39.00
2017-07-09T13:04:05.446Z,38.20
2017-07-09T13:06:31.617Z,37.70
2017-07-09T13:08:57.815Z,37.80
2017-07-09T13:11:24.022Z,37.80
2017-07-09T13:13:50.199Z,37.60
2017-07-09T13:16:16.400Z,37.80
2017-07-09T13:18:42.619Z,37.80
2017-07-09T13:21:08.822Z,37.60
2017-07-09T13:23:35.019Z,38.40
2017-07-09T13:26:01.246Z,37.20
2017-07-09T13:28:27.435Z,38.50
2017-07-09T13:30:53.629Z,37.60
2017-07-09T13:33:19.845Z,36.80
2017-07-09T13:35:46.028Z,37.40
2017-07-09T13:38:13.011Z,39.70
2017-07-09T13:40:39.166Z,38.80
2017-07-09T13:43:05.336Z,38.10
2017-07-09T13:45:32.265Z,38.80
2017-07-09T13:47:59.202Z,39.60
2017-07-09T13:50:25.403Z,38.70
2017-07-09T13:52:51.603Z,38.10
2017-07-09T13:55:17.765Z,37.10
2017-07-09T13:57:43.957Z,37.60
2017-07-09T14:00:10.179Z,36.60
2017-07-09T14:02:37.079Z,38.60
2017-07-09T14:05:03.366Z,38.20
2017-07-09T14:07:29.554Z,37.70
2017-07-09T14:09:55.762Z,38.10
2017-07-09T14:12:21.985Z,39.40
2017-07-09T14:14:48.212Z,38.60
2017-07-09T14:17:14.484Z,39.10
2017-07-09T14:19:41.398Z,40.90
2017-07-09T14:22:07.598Z,40.60
2017-07-09T14:24:33.808Z,40.10
2017-07-09T14:27:00.016Z,39.60
2017-07-09T14:29:26.971Z,40.50
2017-07-09T14:31:53.919Z,40.00
2017-07-09T14:34:20.868Z,41.00
2017-07-09T14:36:47.812Z,40.40
2017-07-09T14:39:14.755Z,40.60
2017-07-09T14:41:41.700Z,40.40
2017-07-09T14:44:08.621Z,40.80
2017-07-09T14:46:37.274Z,41.50
2017-07-09T14:49:03.715Z,40.40
2017-07-09T14:51:30.051Z,40.50
2017-07-09T14:53:57.418Z,40.50
2017-07-09T14:56:23.678Z,40.40
2017-07-09T14:58:50.627Z,40.60
2017-07-09T15:01:17.801Z,42.60
2017-07-09T15:03:43.964Z,41.40
2017-07-09T15:06:10.202Z,42.20
2017-07-09T15:08:36.365Z,41.50
2017-07-09T15:11:03.360Z,42.10
2017-07-09T15:13:29.552Z,41.60
2017-07-09T15:15:55.757Z,42.00
2017-07-09T15:18:24.636Z,42.60
2017-07-09T15:20:50.823Z,41.60
2017-07-09T15:23:18.008Z,42.00
2017-07-09T15:25:44.484Z,42.20
2017-07-09T15:28:10.681Z,43.20
2017-07-09T15:30:37.685Z,43.20
2017-07-09T15:33:03.890Z,42.80
2017-07-09T15:35:30.089Z,43.40
2017-07-09T15:37:56.288Z,42.70
2017-07-09T15:40:22.470Z,43.50
2017-07-09T15:42:48.763Z,43.50
2017-07-09T15:45:14.984Z,43.80
2017-07-09T15:47:41.478Z,44.10
2017-07-09T15:50:10.065Z,44.10
2017-07-09T15:52:37.508Z,44.00
2017-07-09T15:55:03.682Z,44.00
2017-07-09T15:57:29.898Z,44.20
2017-07-09T15:59:56.128Z,44.80
2017-07-09T16:02:22.317Z,45.40
2017-07-09T16:04:48.607Z,45.00
2017-07-09T16:07:14.808Z,45.20
2017-07-09T16:09:41.617Z,45.60
2017-07-09T16:12:08.004Z,45.30
2017-07-09T16:14:34.217Z,46.20
2017-07-09T16:17:00.610Z,45.60
2017-07-09T16:19:26.873Z,46.00
2017-07-09T16:21:53.063Z,45.80
2017-07-09T16:24:20.224Z,46.30
2017-07-09T16:26:46.788Z,46.40
2017-07-09T16:29:13.014Z,46.30
2017-07-09T16:31:39.265Z,47.20
2017-07-09T16:34:05.552Z,46.40
2017-07-09T16:36:31.853Z,46.60
2017-07-09T16:38:58.086Z,46.70
2017-07-09T16:41:25.056Z,47.30
2017-07-09T16:43:51.280Z,46.90
2017-07-09T16:46:17.557Z,46.20
2017-07-09T16:48:43.758Z,46.80
2017-07-09T16:51:10.333Z,46.50
2017-07-09T16:53:36.543Z,47.30
2017-07-09T16:56:02.756Z,47.20
2017-07-09T16:58:28.978Z,47.40
2017-07-09T17:00:55.199Z,46.80
2017-07-09T17:03:21.433Z,48.00
2017-07-09T17:05:47.656Z,47.60
2017-07-09T17:08:13.875Z,47.90
2017-07-09T17:10:40.842Z,47.60
2017-07-09T17:13:07.145Z,47.20
2017-07-09T17:15:33.346Z,47.60
2017-07-09T17:17:59.584Z,47.80
2017-07-09T17:20:26.557Z,48.00
2017-07-09T17:22:53.200Z,46.90
2017-07-09T17:25:19.425Z,46.80
2017-07-09T17:27:46.376Z,48.10
2017-07-09T17:30:12.605Z,47.10
2017-07-09T17:32:38.824Z,47.90
2017-07-09T17:35:05.771Z,48.50
2017-07-09T17:37:32.729Z,48.50
2017-07-09T17:39:59.639Z,47.80
2017-07-09T17:42:25.856Z,47.90
2017-07-09T17:44:52.124Z,48.20
2017-07-09T17:47:18.314Z,48.50
2017-07-09T17:49:44.530Z,49.00
2017-07-09T17:52:10.733Z,48.60
2017-07-09T17:54:36.970Z,48.40
2017-07-09T17:57:03.148Z,49.30
2017-07-09T17:59:30.059Z,49.20
2017-07-09T18:01:56.289Z,49.50
2017-07-09T18:04:22.482Z,48.40
2017-07-09T18:06:48.652Z,48.80
2017-07-09T18:09:14.922Z,50.00
2017-07-09T18:11:42.003Z,50.20
2017-07-09T18:14:08.171Z,49.70
2017-07-09T18:16:34.381Z,49.70
2017-07-09T18:19:00.586Z,49.30
2017-07-09T18:21:26.797Z,49.50
2017-07-09T18:23:52.999Z,49.50
2017-07-09T18:26:19.915Z,49.90
2017-07-09T18:28:46.263Z,50.00
2017-07-09T18:31:12.480Z,50.10
2017-07-09T18:33:38.680Z,50.20
2017-07-09T18:36:04.917Z,49.80
2017-07-09T18:38:31.147Z,49.70
2017-07-09T18:40:57.412Z,49.90
2017-07-09T18:43:23.612Z,50.60
2017-07-09T18:45:49.834Z,50.30
2017-07-09T18:48:16.081Z,50.50
2017-07-09T18:50:42.338Z,50.10
2017-07-09T18:53:09.293Z,51.30
2017-07-09T18:55:36.294Z,50.70
2017-07-09T18:58:02.547Z,51.00
2017-07-09T19:00:28.740Z,51.60
2017-07-09T19:02:55.081Z,50.70
2017-07-09T19:05:21.240Z,50.90
2017-07-09T19:07:47.634Z,51.50
2017-07-09T19:10:13.898Z,51.50
2017-07-09T19:12:40.098Z,51.50
2017-07-09T19:15:06.353Z,52.10
2017-07-09T19:17:32.557Z,51.40
2017-07-09T19:19:58.915Z,51.80
2017-07-09T19:22:25.461Z,52.40
2017-07-09T19:24:52.491Z,52.70
2017-07-09T19:27:20.075Z,52.30
2017-07-09T19:29:47.241Z,53.30
2017-07-09T19:32:18.125Z,52.80
2017-07-09T19:34:45.422Z,53.20
2017-07-09T19:37:12.444Z,52.90
2017-07-09T19:39:41.807Z,52.70
2017-07-09T19:42:09.431Z,53.10
2017-07-09T19:44:35.655Z,53.90
2017-07-09T19:47:02.647Z,54.10
2017-07-09T19:49:29.106Z,53.20
2017-07-09T19:51:55.334Z,54.00
2017-07-09T19:54:23.527Z,54.30
2017-07-09T19:56:50.803Z,54.00
2017-07-09T19:59:17.753Z,54.70
2017-07-09T20:01:44.687Z,55.40
2017-07-09T20:04:11.602Z,56.00
2017-07-09T20:06:37.866Z,55.20
2017-07-09T20:09:05.855Z,55.20
2017-07-09T20:11:32.024Z,55.20
2017-07-09T20:13:58.240Z,55.50
2017-07-09T20:16:24.473Z,55.30
2017-07-09T20:18:50.691Z,55.30
2017-07-09T20:21:17.370Z,56.20
2017-07-09T20:23:43.598Z,57.00
2017-07-09T20:26:10.566Z,58.50
2017-07-09T20:28:37.554Z,59.10
2017-07-09T20:31:04.690Z,59.10
2017-07-09T20:33:30.891Z,59.60
2017-07-09T20:35:57.455Z,60.40
2017-07-09T20:38:23.644Z,61.00
2017-07-09T20:40:50.596Z,61.70
2017-07-09T20:43:17.549Z,63.20
2017-07-09T20:45:45.496Z,63.70
2017-07-09T20:48:11.696Z,63.30
2017-07-09T20:50:37.882Z,65.00
2017-07-09T20:53:04.853Z,64.90
2017-07-09T20:55:31.042Z,65.10
2017-07-09T20:57:58.036Z,65.80
2017-07-09T21:00:24.252Z,66.90
2017-07-09T21:02:50.490Z,69.30
2017-07-09T21:05:16.697Z,70.70
2017-07-09T21:07:42.939Z,73.50
2017-07-09T21:10:09.156Z,72.60
2017-07-09T21:12:35.402Z,74.50
2017-07-09T21:15:02.425Z,73.80
2017-07-09T21:17:29.391Z,76.50
2017-07-09T21:19:55.588Z,75.40
2017-07-09T21:22:23.304Z,76.40
2017-07-09T21:24:50.653Z,76.90
2017-07-09T21:27:16.908Z,76.50
2017-07-09T21:29:43.104Z,76.10
2017-07-09T21:32:12.817Z,75.70
2017-07-09T21:34:39.064Z,75.70
2017-07-09T21:37:05.299Z,74.80
2017-07-09T21:39:31.481Z,74.60
2017-07-09T21:41:57.714Z,74.60
2017-07-09T21:44:23.879Z,73.50
2017-07-09T21:46:50.104Z,73.50
2017-07-09T21:49:16.344Z,73.70
2017-07-09T21:51:42.511Z,73.80
2017-07-09T21:54:09.475Z,74.00
2017-07-09T21:56:35.717Z,73.70
2017-07-09T21:59:02.012Z,73.70
2017-07-09T22:01:28.950Z,74.70
2017-07-09T22:03:55.903Z,74.40
2017-07-09T22:06:22.820Z,74.70
2017-07-09T22:08:49.864Z,73.60
2017-07-09T22:11:16.036Z,73.60
2017-07-09T22:13:43.043Z,73.50
2017-07-09T22:16:09.293Z,72.00
2017-07-09T22:18:35.631Z,72.80
2017-07-09T22:21:01.872Z,72.60
2017-07-09T22:23:28.917Z,72.90
2017-07-09T22:25:55.851Z,73.50
2017-07-09T22:28:22.038Z,73.20
2017-07-09T22:30:48.956Z,73.10
2017-07-09T22:33:15.237Z,73.50
2017-07-09T22:35:41.418Z,74.30
2017-07-09T22:38:07.647Z,74.00
2017-07-09T22:40:33.832Z,73.50
2017-07-09T22:43:01.158Z,73.80
2017-07-09T22:45:27.346Z,74.30
2017-07-09T22:47:56.942Z,74.10
2017-07-09T22:50:23.146Z,74.50
2017-07-09T22:52:50.083Z,76.20
2017-07-09T22:55:16.366Z,74.30
2017-07-09T22:57:42.528Z,74.50
2017-07-09T23:00:08.822Z,74.70
2017-07-09T23:02:34.990Z,74.10
2017-07-09T23:05:01.176Z,74.10
2017-07-09T23:07:27.583Z,73.20
2017-07-09T23:09:53.779Z,74.50
2017-07-09T23:12:20.991Z,75.60
2017-07-09T23:14:47.143Z,75.80
2017-07-09T23:17:13.303Z,75.80
2017-07-09T23:19:40.287Z,75.90
2017-07-09T23:22:06.497Z,76.80
2017-07-09T23:24:33.439Z,77.70
2017-07-09T23:26:59.654Z,77.50
2017-07-09T23:29:25.856Z,77.50
2017-07-09T23:31:52.940Z,77.40
2017-07-09T23:34:19.160Z,77.40
2017-07-09T23:36:45.355Z,78.20
2017-07-09T23:39:11.560Z,77.60
2017-07-09T23:41:37.765Z,77.30
2017-07-09T23:44:06.643Z,78.60
2017-07-09T23:46:33.030Z,78.10
2017-07-09T23:48:59.224Z,78.40
2017-07-09T23:51:28.360Z,78.60
2017-07-09T23:53:54.736Z,78.00
2017-07-09T23:56:21.981Z,78.10
2017-07-09T23:58:49.189Z,78.40
